aviador You're here:

LEVT Decoded Metar

VITORIA in SPAIN
Report Time2018-07-17 11:30:00
UTC Time2018-07-17 11:42:35
Flight Rules vfr VFR
Wind050° at 06 kt
W.Decomp.*RWY 04: 5.9 kt HW 1.2 kt RCW
W.Rank050° ranks 10
Current wind is above 050° avg. (4.6)
Visibility9999 m
Phenomena:N/A
Clouds:Few 035 Hf
Expected CloudBase > 2,800 ft AGL from Temp-Dew spread
CeilingNone
Temp23°C (ISA +11)
Dew Point16°C (65% RH)
AAT22.8°C
QNH1021 hPa
Density Alt2,963 ft
Elevation1,670 ft
Report Wrong Elevation
Raw Report
LEVT 171130Z 05006KT 360V100 9999 FEW035 23/16 Q1021=

Extra information for LEVT:More info

Metar Taf Metar & Taf Last 4 Metars F.Rules Stats Wind Profile Meteogram Temp Stats Airport Information Weather charts Add Link Nearby VenuesMetar ALERT Operation Metar Decoded Social comments